California Hornblower — WDB8632 — position and weather

sailwx.info

Track history (hours):
 
Tides and Currents Weather Stations Pressure Air Temp Water Temp Dewpoint Dewpoint Depression Visibility Wind Speed Wind Dir Waves Ship Positions

California Hornblower

Owner: hornblower cruises and events, san francisco, CA. More information available from US FCC via Universal Licensing System and Coast Guard Vessel Documentation Center.

Last reported at 2018-Feb-21 13:20 UTC. Time now 2018-Feb-24 22:12 UTC.
Position N 37°47' W 122°17'.

Length 54 m; draft 4.8 m.

Type: Passenger vessel. MMSI: 366961920.

Date/timePositionNaut miles runAvg speedWind from/ knotsBaromVisibWave heightAir tempDewpointWater temp
2018-Feb-21 13:20N 37°47' W 122°17'0 0.5
2018-Feb-21 13:01N 37°48' W 122°18'2 3.8
2018-Feb-21 12:31N 37°48' W 122°20'3 5.0
2018-Feb-21 12:01N 37°48' W 122°23'  
2018-Feb-19 06:16N 37°48' W 122°24'0 0.0
2018-Feb-19 06:00N 37°48' W 122°24'0 0.0
2018-Feb-19 05:30N 37°48' W 122°24'1 2.0
2018-Feb-19 05:01N 37°47' W 122°23'1 2.2
2018-Feb-19 04:30N 37°47' W 122°21'3 6.1
2018-Feb-19 04:00N 37°50' W 122°22'2 4.4
2018-Feb-19 03:30N 37°50' W 122°25'2 3.8
2018-Feb-19 02:59N 37°48' W 122°24'0 0.0
2018-Feb-19 02:26N 37°48' W 122°24'0 0.0
2018-Feb-19 01:58N 37°48' W 122°24'0 0.0
2018-Feb-19 01:29N 37°48' W 122°24'0 0.0
2018-Feb-19 00:52N 37°48' W 122°24'0 0.0
2018-Feb-19 00:27N 37°48' W 122°24'0 0.0
2018-Feb-18 23:58N 37°48' W 122°24'0 0.0
2018-Feb-18 23:28N 37°48' W 122°24'0 0.0
2018-Feb-18 22:59N 37°48' W 122°24'0 0.0
2018-Feb-18 22:30N 37°48' W 122°24'0 0.0
2018-Feb-18 21:58N 37°48' W 122°24'0 0.2
2018-Feb-18 21:30N 37°48' W 122°24'1 1.6
2018-Feb-18 21:00N 37°49' W 122°24'4 7.4
2018-Feb-18 20:30N 37°49' W 122°28'3 5.3
2018-Feb-18 20:00N 37°49' W 122°25'2 3.1
2018-Feb-18 19:30N 37°48' W 122°24'0 0.0
2018-Feb-18 18:53N 37°48' W 122°24'0 0.0
2018-Feb-18 18:28N 37°48' W 122°24'0 0.0
2018-Feb-18 17:59N 37°48' W 122°24'0 0.0
2018-Feb-18 17:29N 37°48' W 122°24'0 0.0
2018-Feb-18 08:13N 37°48' W 122°24'0 0.0
2018-Feb-18 07:58N 37°48' W 122°24'0 0.0
2018-Feb-18 07:30N 37°48' W 122°24'0 0.0
2018-Feb-18 06:59N 37°48' W 122°24'0 0.0
2018-Feb-18 06:30N 37°48' W 122°24'1 1.1
2018-Feb-18 06:01N 37°48' W 122°24'4 7.4
2018-Feb-18 05:30N 37°49' W 122°28'2 4.6
2018-Feb-18 05:00N 37°51' W 122°28'3 5.7
2018-Feb-18 04:30N 37°52' W 122°25'3 6.4
2018-Feb-18 04:00N 37°49' W 122°24'1 1.5
2018-Feb-18 03:29N 37°48' W 122°24'0 0.0
2018-Feb-18 02:50N 37°48' W 122°24'0 0.0
2018-Feb-18 02:27N 37°48' W 122°24'0 0.0
2018-Feb-18 01:58N 37°48' W 122°24'0 0.0
2018-Feb-18 01:29N 37°48' W 122°24'0 0.0
2018-Feb-18 00:59N 37°48' W 122°24'0 0.0
2018-Feb-17 21:37N 37°48' W 122°24'0 0.0
2018-Feb-17 21:31N 37°48' W 122°24'1 2.1
2018-Feb-17 21:00N 37°49' W 122°24'3 6.9
2018-Feb-17 20:30N 37°49' W 122°28'3 5.2
2018-Feb-17 20:00N 37°49' W 122°25'2 3.2
2018-Feb-17 19:30N 37°48' W 122°24'0 0.0
2018-Feb-17 19:00N 37°48' W 122°24'0 0.0
2018-Feb-17 18:30N 37°48' W 122°24'0 0.0
2018-Feb-17 07:45N 37°48' W 122°24'0 0.0
2018-Feb-17 07:30N 37°48' W 122°24'0 0.0
2018-Feb-17 07:00N 37°48' W 122°24'0 0.0
2018-Feb-17 06:30N 37°48' W 122°24'1 2.6
2018-Feb-17 06:01N 37°47' W 122°22'0 0.1
2018-Feb-17 05:30N 37°47' W 122°22'4 7.0
2018-Feb-17 05:00N 37°50' W 122°25'2 3.9
2018-Feb-17 04:30N 37°49' W 122°28'3 6.5
2018-Feb-17 04:00N 37°48' W 122°24'0 0.4
2018-Feb-17 03:26N 37°48' W 122°24'0 0.0
2018-Feb-17 02:57N 37°48' W 122°24'0 0.0
2018-Feb-17 02:30N 37°48' W 122°24'0 0.0
2018-Feb-17 01:58N 37°48' W 122°24'0 0.0
2018-Feb-15 06:58N 37°48' W 122°24'0 0.0
2018-Feb-15 06:30N 37°48' W 122°24'1 2.3
2018-Feb-15 06:00N 37°49' W 122°25'3 6.5
2018-Feb-15 05:31N 37°49' W 122°29'3 5.6
2018-Feb-15 05:01N 37°52' W 122°27'2 3.9
2018-Feb-15 04:30N 37°52' W 122°25'3 5.7
2018-Feb-15 04:00N 37°49' W 122°24'1 2.0
2018-Feb-15 03:29N 37°48' W 122°24'0 0.0
2018-Feb-15 03:00N 37°48' W 122°24'0 0.0
2018-Feb-15 02:30N 37°48' W 122°24'0 0.0
2018-Feb-15 01:54N 37°48' W 122°24'0 0.0
2018-Feb-15 01:30N 37°48' W 122°24'0 0.0
2018-Feb-15 00:57N 37°48' W 122°24'0 0.0
2018-Feb-15 00:22N 37°48' W 122°24'0 0.0
2018-Feb-14 23:55N 37°48' W 122°24'0 0.0
2018-Feb-13 06:40N 37°48' W 122°24'0 0.0
2018-Feb-13 06:30N 37°48' W 122°24'0 0.8
2018-Feb-13 06:01N 37°48' W 122°24'3 5.5
2018-Feb-13 05:30N 37°49' W 122°27'3 5.5
2018-Feb-13 05:00N 37°51' W 122°29'2 4.0
2018-Feb-13 04:30N 37°52' W 122°26'3 5.5
2018-Feb-13 04:00N 37°50' W 122°25'2 3.8
2018-Feb-13 03:26N 37°48' W 122°24'0 0.0
2018-Feb-13 03:00N 37°48' W 122°24'0 0.0
2018-Feb-13 02:30N 37°48' W 122°24'0 0.0
2018-Feb-13 02:00N 37°48' W 122°24'0 0.0
2018-Feb-13 01:30N 37°48' W 122°24'0 0.0
2018-Feb-13 01:00N 37°48' W 122°24'0 0.0
2018-Feb-13 00:30N 37°48' W 122°24'0 0.0
2018-Feb-13 00:00N 37°48' W 122°24'0 0.9
2018-Feb-12 23:30N 37°48' W 122°24'2 5.0
2018-Feb-12 23:00N 37°50' W 122°27'1 2.1
2018-Feb-12 22:30N 37°49' W 122°28'4 6.9
2018-Feb-12 22:00N 37°48' W 122°24'0 0.0
2018-Feb-12 06:44N 37°48' W 122°24'0 0.0
2018-Feb-12 06:30N 37°48' W 122°24'1 2.9
2018-Feb-12 06:00N 37°48' W 122°22'3 6.6
2018-Feb-12 05:30N 37°51' W 122°23'3 5.9
2018-Feb-12 05:00N 37°52' W 122°26'4 7.1
2018-Feb-12 04:31N 37°49' W 122°29'3 5.1
2018-Feb-12 04:00N 37°50' W 122°25'2 4.8
2018-Feb-12 03:30N 37°48' W 122°24'0 0.0
2018-Feb-12 02:59N 37°48' W 122°24'0 0.0
2018-Feb-12 02:30N 37°48' W 122°24'0 0.0
2018-Feb-12 01:54N 37°48' W 122°24'0 0.0
2018-Feb-12 01:29N 37°48' W 122°24'0 0.0
2018-Feb-11 21:28N 37°48' W 122°24'0 1.0
2018-Feb-11 21:01N 37°48' W 122°24'3 5.6
2018-Feb-11 20:30N 37°50' W 122°27'1 1.2
2018-Feb-11 19:59N 37°49' W 122°26'3 5.2
2018-Feb-11 19:30N 37°48' W 122°24'0 0.0
2018-Feb-11 19:00N 37°48' W 122°24'0 0.0
2018-Feb-11 18:30N 37°48' W 122°24'  
Track history (hours):
 
Tides and Currents Weather Stations Pressure Air Temp Water Temp Dewpoint Dewpoint Depression Visibility Wind Speed Wind Dir Waves Ship Positions

California Hornblower

Owner: hornblower cruises and events, san francisco, CA. More information available from US FCC via Universal Licensing System and Coast Guard Vessel Documentation Center.

Last reported at 2018-Feb-21 13:20 UTC. Time now 2018-Feb-24 22:12 UTC.
Position N 37°47' W 122°17'.

Length 54 m; draft 4.8 m.

Type: Passenger vessel. MMSI: 366961920.

Date/timePositionNaut miles runAvg speedWind from/ knotsBaromVisibWave heightAir tempDewpointWater temp
2018-Feb-21 13:20N 37°47' W 122°17'0 0.5
2018-Feb-21 13:01N 37°48' W 122°18'2 3.8
2018-Feb-21 12:31N 37°48' W 122°20'3 5.0
2018-Feb-21 12:01N 37°48' W 122°23'  
2018-Feb-19 06:16N 37°48' W 122°24'0 0.0
2018-Feb-19 06:00N 37°48' W 122°24'0 0.0
2018-Feb-19 05:30N 37°48' W 122°24'1 2.0
2018-Feb-19 05:01N 37°47' W 122°23'1 2.2
2018-Feb-19 04:30N 37°47' W 122°21'3 6.1
2018-Feb-19 04:00N 37°50' W 122°22'2 4.4
2018-Feb-19 03:30N 37°50' W 122°25'2 3.8
2018-Feb-19 02:59N 37°48' W 122°24'0 0.0
2018-Feb-19 02:26N 37°48' W 122°24'0 0.0
2018-Feb-19 01:58N 37°48' W 122°24'0 0.0
2018-Feb-19 01:29N 37°48' W 122°24'0 0.0
2018-Feb-19 00:52N 37°48' W 122°24'0 0.0
2018-Feb-19 00:27N 37°48' W 122°24'0 0.0
2018-Feb-18 23:58N 37°48' W 122°24'0 0.0
2018-Feb-18 23:28N 37°48' W 122°24'0 0.0
2018-Feb-18 22:59N 37°48' W 122°24'0 0.0
2018-Feb-18 22:30N 37°48' W 122°24'0 0.0
2018-Feb-18 21:58N 37°48' W 122°24'0 0.2
2018-Feb-18 21:30N 37°48' W 122°24'1 1.6
2018-Feb-18 21:00N 37°49' W 122°24'4 7.4
2018-Feb-18 20:30N 37°49' W 122°28'3 5.3
2018-Feb-18 20:00N 37°49' W 122°25'2 3.1
2018-Feb-18 19:30N 37°48' W 122°24'0 0.0
2018-Feb-18 18:53N 37°48' W 122°24'0 0.0
2018-Feb-18 18:28N 37°48' W 122°24'0 0.0
2018-Feb-18 17:59N 37°48' W 122°24'0 0.0
2018-Feb-18 17:29N 37°48' W 122°24'0 0.0
2018-Feb-18 08:13N 37°48' W 122°24'0 0.0
2018-Feb-18 07:58N 37°48' W 122°24'0 0.0
2018-Feb-18 07:30N 37°48' W 122°24'0 0.0
2018-Feb-18 06:59N 37°48' W 122°24'0 0.0
2018-Feb-18 06:30N 37°48' W 122°24'1 1.1
2018-Feb-18 06:01N 37°48' W 122°24'4 7.4
2018-Feb-18 05:30N 37°49' W 122°28'2 4.6
2018-Feb-18 05:00N 37°51' W 122°28'3 5.7
2018-Feb-18 04:30N 37°52' W 122°25'3 6.4
2018-Feb-18 04:00N 37°49' W 122°24'1 1.5
2018-Feb-18 03:29N 37°48' W 122°24'0 0.0
2018-Feb-18 02:50N 37°48' W 122°24'0 0.0
2018-Feb-18 02:27N 37°48' W 122°24'0 0.0
2018-Feb-18 01:58N 37°48' W 122°24'0 0.0
2018-Feb-18 01:29N 37°48' W 122°24'0 0.0
2018-Feb-18 00:59N 37°48' W 122°24'0 0.0
2018-Feb-17 21:37N 37°48' W 122°24'0 0.0
2018-Feb-17 21:31N 37°48' W 122°24'1 2.1
2018-Feb-17 21:00N 37°49' W 122°24'3 6.9
2018-Feb-17 20:30N 37°49' W 122°28'3 5.2
2018-Feb-17 20:00N 37°49' W 122°25'2 3.2
2018-Feb-17 19:30N 37°48' W 122°24'0 0.0
2018-Feb-17 19:00N 37°48' W 122°24'0 0.0
2018-Feb-17 18:30N 37°48' W 122°24'0 0.0
2018-Feb-17 07:45N 37°48' W 122°24'0 0.0
2018-Feb-17 07:30N 37°48' W 122°24'0 0.0
2018-Feb-17 07:00N 37°48' W 122°24'0 0.0
2018-Feb-17 06:30N 37°48' W 122°24'1 2.6
2018-Feb-17 06:01N 37°47' W 122°22'0 0.1
2018-Feb-17 05:30N 37°47' W 122°22'4 7.0
2018-Feb-17 05:00N 37°50' W 122°25'2 3.9
2018-Feb-17 04:30N 37°49' W 122°28'3 6.5
2018-Feb-17 04:00N 37°48' W 122°24'0 0.4
2018-Feb-17 03:26N 37°48' W 122°24'0 0.0
2018-Feb-17 02:57N 37°48' W 122°24'0 0.0
2018-Feb-17 02:30N 37°48' W 122°24'0 0.0
2018-Feb-17 01:58N 37°48' W 122°24'0 0.0
2018-Feb-15 06:58N 37°48' W 122°24'0 0.0
2018-Feb-15 06:30N 37°48' W 122°24'1 2.3
2018-Feb-15 06:00N 37°49' W 122°25'3 6.5
2018-Feb-15 05:31N 37°49' W 122°29'3 5.6
2018-Feb-15 05:01N 37°52' W 122°27'2 3.9
2018-Feb-15 04:30N 37°52' W 122°25'3 5.7
2018-Feb-15 04:00N 37°49' W 122°24'1 2.0
2018-Feb-15 03:29N 37°48' W 122°24'0 0.0
2018-Feb-15 03:00N 37°48' W 122°24'0 0.0
2018-Feb-15 02:30N 37°48' W 122°24'0 0.0
2018-Feb-15 01:54N 37°48' W 122°24'0 0.0
2018-Feb-15 01:30N 37°48' W 122°24'0 0.0
2018-Feb-15 00:57N 37°48' W 122°24'0 0.0
2018-Feb-15 00:22N 37°48' W 122°24'0 0.0
2018-Feb-14 23:55N 37°48' W 122°24'0 0.0
2018-Feb-13 06:40N 37°48' W 122°24'0 0.0
2018-Feb-13 06:30N 37°48' W 122°24'0 0.8
2018-Feb-13 06:01N 37°48' W 122°24'3 5.5
2018-Feb-13 05:30N 37°49' W 122°27'3 5.5
2018-Feb-13 05:00N 37°51' W 122°29'2 4.0
2018-Feb-13 04:30N 37°52' W 122°26'3 5.5
2018-Feb-13 04:00N 37°50' W 122°25'2 3.8
2018-Feb-13 03:26N 37°48' W 122°24'0 0.0
2018-Feb-13 03:00N 37°48' W 122°24'0 0.0
2018-Feb-13 02:30N 37°48' W 122°24'0 0.0
2018-Feb-13 02:00N 37°48' W 122°24'0 0.0
2018-Feb-13 01:30N 37°48' W 122°24'0 0.0
2018-Feb-13 01:00N 37°48' W 122°24'0 0.0
2018-Feb-13 00:30N 37°48' W 122°24'0 0.0
2018-Feb-13 00:00N 37°48' W 122°24'0 0.9
2018-Feb-12 23:30N 37°48' W 122°24'2 5.0
2018-Feb-12 23:00N 37°50' W 122°27'1 2.1
2018-Feb-12 22:30N 37°49' W 122°28'4 6.9
2018-Feb-12 22:00N 37°48' W 122°24'0 0.0
2018-Feb-12 06:44N 37°48' W 122°24'0 0.0
2018-Feb-12 06:30N 37°48' W 122°24'1 2.9
2018-Feb-12 06:00N 37°48' W 122°22'3 6.6
2018-Feb-12 05:30N 37°51' W 122°23'3 5.9
2018-Feb-12 05:00N 37°52' W 122°26'4 7.1
2018-Feb-12 04:31N 37°49' W 122°29'3 5.1
2018-Feb-12 04:00N 37°50' W 122°25'2 4.8
2018-Feb-12 03:30N 37°48' W 122°24'0 0.0
2018-Feb-12 02:59N 37°48' W 122°24'0 0.0
2018-Feb-12 02:30N 37°48' W 122°24'0 0.0
2018-Feb-12 01:54N 37°48' W 122°24'0 0.0
2018-Feb-12 01:29N 37°48' W 122°24'0 0.0
2018-Feb-11 21:28N 37°48' W 122°24'0 1.0
2018-Feb-11 21:01N 37°48' W 122°24'3 5.6
2018-Feb-11 20:30N 37°50' W 122°27'1 1.2
2018-Feb-11 19:59N 37°49' W 122°26'3 5.2
2018-Feb-11 19:30N 37°48' W 122°24'0 0.0
2018-Feb-11 19:00N 37°48' W 122°24'0 0.0
2018-Feb-11 18:30N 37°48' W 122°24'  

Dump ship's entire track history